Time;durP1;ratioP1;P1;durP2;ratioP2;P2;SDS_P1;SDS_P2;PMS_P1;PMS_P2;Temp;Humidity;BMP_temperature;BMP_pressure;BME280_temperature;BME280_humidity;BME280_pressure;Samples;Min_cycle;Max_cycle;Signal;HPM_P1;HPM_P2
2021/11/14 00:02:23;;;;;;;12.38;3.90;;;12.10;99.90;;;;;;5081039;28;20397;-73
2021/11/14 00:04:49;;;;;;;6.45;3.10;;;12.10;99.90;;;;;;5078702;28;20024;-73
2021/11/14 00:07:16;;;;;;;5.13;4.07;;;12.00;99.90;;;;;;5096932;28;20024;-76
2021/11/14 00:09:42;;;;;;;7.53;3.50;;;12.00;99.90;;;;;;5099166;28;20054;-76
2021/11/14 00:12:09;;;;;;;8.18;3.95;;;12.00;99.90;;;;;;5101415;28;20084;-78
2021/11/14 00:14:34;;;;;;;6.03;3.83;;;11.90;99.90;;;;;;5082785;28;20028;-77
2021/11/14 00:17:00;;;;;;;7.57;3.42;;;11.90;99.90;;;;;;5101634;28;20035;-75
2021/11/14 00:19:25;;;;;;;6.80;3.30;;;12.00;99.90;;;;;;5099463;28;20016;-75
2021/11/14 00:21:51;;;;;;;7.93;3.60;;;12.00;99.90;;;;;;5081391;28;20024;-70
2021/11/14 00:24:17;;;;;;;6.40;3.22;;;11.80;99.90;;;;;;5099189;28;20028;-76
2021/11/14 00:26:43;;;;;;;10.15;4.30;;;11.80;99.90;;;;;;5095870;28;20027;-74
2021/11/14 00:29:09;;;;;;;8.05;4.15;;;11.80;99.90;;;;;;5095444;28;20516;-75
2021/11/14 00:31:36;;;;;;;5.18;3.40;;;11.80;99.90;;;;;;5097931;28;20020;-74
2021/11/14 00:34:04;;;;;;;8.70;3.50;;;11.80;99.90;;;;;;5096050;28;20028;-76
2021/11/14 00:36:37;;;;;;;6.75;3.90;;;11.80;99.90;;;;;;5097325;28;20035;-73
2021/11/14 00:39:06;;;;;;;6.53;3.42;;;11.80;99.90;;;;;;5097435;28;20036;-75
2021/11/14 00:41:31;;;;;;;6.57;4.25;;;11.80;99.90;;;;;;5078818;28;20050;-76
2021/11/14 00:43:58;;;;;;;9.98;4.60;;;11.80;99.90;;;;;;5095817;28;20043;-76
2021/11/14 00:46:24;;;;;;;7.35;3.50;;;11.90;99.90;;;;;;5078996;28;20024;-75
2021/11/14 00:48:52;;;;;;;7.72;4.20;;;11.90;99.90;;;;;;5097000;28;20046;-75
2021/11/14 00:51:24;;;;;;;9.13;4.85;;;11.90;99.90;;;;;;5080962;28;20023;-75
2021/11/14 00:53:50;;;;;;;7.60;3.78;;;11.90;99.90;;;;;;5081499;28;20020;-75
2021/11/14 00:56:15;;;;;;;7.45;3.75;;;11.90;99.90;;;;;;5096892;28;20028;-78
2021/11/14 00:58:41;;;;;;;7.00;4.75;;;11.80;99.90;;;;;;5096617;28;20091;-79
2021/11/14 01:01:07;;;;;;;9.73;3.90;;;11.90;99.90;;;;;;5094105;28;20099;-68
2021/11/14 01:03:32;;;;;;;4.75;4.07;;;11.90;99.90;;;;;;5091830;28;20074;-69
2021/11/14 01:05:58;;;;;;;7.35;4.55;;;11.80;99.90;;;;;;5091761;28;20039;-69
2021/11/14 01:08:24;;;;;;;5.95;3.65;;;11.80;99.90;;;;;;5091388;28;20077;-69
2021/11/14 01:10:52;;;;;;;5.60;3.65;;;11.90;99.90;;;;;;5092136;28;20028;-68
2021/11/14 01:13:18;;;;;;;6.57;4.50;;;11.90;99.90;;;;;;5096852;28;20031;-68
2021/11/14 01:15:46;;;;;;;7.82;3.88;;;11.90;99.90;;;;;;5096710;28;20028;-67
2021/11/14 01:18:14;;;;;;;5.18;3.53;;;11.90;99.90;;;;;;5095712;28;20103;-68
2021/11/14 01:20:41;;;;;;;6.13;4.18;;;11.90;99.90;;;;;;5095491;28;20048;-68
2021/11/14 01:23:08;;;;;;;10.82;4.75;;;11.80;99.90;;;;;;5095154;28;20020;-68
2021/11/14 01:25:35;;;;;;;8.70;4.47;;;11.80;99.90;;;;;;5078518;28;20024;-68
2021/11/14 01:28:00;;;;;;;8.15;3.85;;;11.70;99.90;;;;;;5096430;28;20104;-69
2021/11/14 01:30:29;;;;;;;6.43;4.40;;;11.70;99.90;;;;;;5096518;28;20047;-67
2021/11/14 01:32:56;;;;;;;7.97;4.28;;;11.70;99.90;;;;;;5078295;28;20059;-68
2021/11/14 01:35:22;;;;;;;6.13;4.57;;;11.70;99.90;;;;;;5078292;28;20028;-67
2021/11/14 01:37:48;;;;;;;6.20;4.30;;;11.70;99.90;;;;;;5078506;28;20394;-84
2021/11/14 01:40:20;;;;;;;6.30;4.47;;;11.80;99.90;;;;;;5097292;28;20081;-82
2021/11/14 01:42:47;;;;;;;9.35;5.10;;;11.80;99.90;;;;;;5097673;28;20016;-81
2021/11/14 01:45:13;;;;;;;11.05;5.75;;;11.80;99.90;;;;;;5096383;28;20024;-84
2021/11/14 01:47:40;;;;;;;6.45;4.05;;;11.80;99.90;;;;;;5097282;28;20456;-84
2021/11/14 01:50:07;;;;;;;8.02;4.60;;;11.70;99.90;;;;;;5097194;28;20031;-82
2021/11/14 01:52:33;;;;;;;8.05;4.75;;;11.70;99.90;;;;;;5080526;28;20085;-83
2021/11/14 01:54:59;;;;;;;9.55;5.20;;;11.70;99.90;;;;;;5098942;28;20028;-86
2021/11/14 01:57:25;;;;;;;10.75;4.65;;;11.60;99.90;;;;;;5086493;28;20020;-84
2021/11/14 01:59:52;;;;;;;9.50;5.03;;;11.60;99.90;;;;;;5088770;28;20100;-81
2021/11/14 02:02:17;;;;;;;11.52;6.07;;;11.40;99.90;;;;;;5101044;28;20535;-84
2021/11/14 02:04:43;;;;;;;9.02;4.40;;;11.40;99.90;;;;;;5097965;28;20020;-81
2021/11/14 02:07:13;;;;;;;12.02;5.00;;;11.30;99.90;;;;;;5097040;28;20024;-80
2021/11/14 02:09:39;;;;;;;8.63;5.75;;;11.20;99.90;;;;;;5097538;28;20501;-77
2021/11/14 02:12:06;;;;;;;8.70;4.40;;;11.30;99.90;;;;;;5078053;28;20024;-76
2021/11/14 02:14:32;;;;;;;9.65;5.00;;;11.20;99.90;;;;;;5078227;28;20016;-76
2021/11/14 02:16:58;;;;;;;7.15;4.75;;;11.20;99.90;;;;;;5077930;28;20024;-75
2021/11/14 02:19:24;;;;;;;6.53;4.18;;;11.20;99.90;;;;;;5077892;28;20016;-75
2021/11/14 02:21:50;;;;;;;11.73;5.53;;;11.30;99.90;;;;;;5094985;28;20020;-75
2021/11/14 02:24:16;;;;;;;10.02;4.93;;;11.30;99.90;;;;;;5093981;28;20466;-71
2021/11/14 02:26:41;;;;;;;8.45;5.63;;;11.40;99.90;;;;;;5097220;28;20032;-74
2021/11/14 02:29:07;;;;;;;7.78;5.55;;;11.40;99.90;;;;;;5094775;28;20479;-76
2021/11/14 02:31:33;;;;;;;12.40;5.70;;;11.40;99.90;;;;;;5096129;28;20032;-76
2021/11/14 02:33:59;;;;;;;12.15;5.53;;;11.40;99.90;;;;;;5077908;28;20024;-76
2021/11/14 02:36:25;;;;;;;11.98;5.15;;;11.40;99.90;;;;;;5077696;28;20024;-76
2021/11/14 02:38:51;;;;;;;14.40;5.95;;;11.50;99.90;;;;;;5077901;28;20020;-74
2021/11/14 02:41:17;;;;;;;7.72;5.38;;;11.50;99.90;;;;;;5077467;28;20097;-75
2021/11/14 02:43:45;;;;;;;10.00;5.60;;;11.50;99.90;;;;;;5077460;28;20063;-75
2021/11/14 02:46:11;;;;;;;11.45;5.57;;;11.50;99.90;;;;;;5094224;28;20117;-74
2021/11/14 02:48:37;;;;;;;19.27;5.43;;;11.50;99.90;;;;;;5094275;28;20040;-75
2021/11/14 02:51:07;;;;;;;10.30;6.22;;;11.40;99.90;;;;;;5095612;28;20020;-75
2021/11/14 02:53:34;;;;;;;12.40;6.72;;;11.40;99.90;;;;;;5094493;28;20016;-77
2021/11/14 02:55:59;;;;;;;17.55;7.40;;;11.40;99.90;;;;;;5095763;28;20025;-74
2021/11/14 02:58:28;;;;;;;13.02;5.95;;;11.30;99.90;;;;;;5094003;28;20085;-76
2021/11/14 03:01:07;;;;;;;14.20;6.50;;;11.40;99.90;;;;;;5076989;28;20020;-67
2021/11/14 03:03:33;;;;;;;7.30;5.43;;;11.30;99.90;;;;;;5076676;28;20020;-68
2021/11/14 03:06:00;;;;;;;9.93;6.40;;;11.40;99.90;;;;;;5093423;28;20020;-67
2021/11/14 03:08:25;;;;;;;9.43;6.28;;;11.30;99.90;;;;;;5093250;28;20440;-70
2021/11/14 03:10:51;;;;;;;14.75;6.70;;;11.30;99.90;;;;;;5076411;28;20016;-67
2021/11/14 03:13:20;;;;;;;12.95;6.70;;;11.20;99.90;;;;;;5093415;28;20028;-69
2021/11/14 03:15:50;;;;;;;14.10;8.10;;;11.20;99.90;;;;;;5093600;28;20039;-69
2021/11/14 03:18:16;;;;;;;11.15;6.97;;;11.20;99.90;;;;;;5093298;28;20043;-67
2021/11/14 03:20:45;;;;;;;19.30;7.95;;;11.30;99.90;;;;;;5094385;28;20103;-68
2021/11/14 03:23:11;;;;;;;11.18;7.63;;;11.30;99.90;;;;;;5093275;28;20386;-69
2021/11/14 03:25:37;;;;;;;14.13;7.40;;;11.40;99.90;;;;;;5092995;28;20027;-71
2021/11/14 03:28:04;;;;;;;14.52;7.68;;;11.40;99.90;;;;;;5092782;28;20056;-70
2021/11/14 03:30:34;;;;;;;12.85;7.65;;;11.40;99.90;;;;;;5092861;28;20024;-70
2021/11/14 03:33:01;;;;;;;12.80;7.30;;;11.50;99.90;;;;;;5092931;28;20027;-69
2021/11/14 03:35:27;;;;;;;10.98;6.95;;;11.40;99.90;;;;;;5099605;28;20020;-80
2021/11/14 03:37:53;;;;;;;11.10;6.88;;;11.50;99.90;;;;;;5084928;28;20023;-72
2021/11/14 03:40:20;;;;;;;13.07;7.75;;;11.50;99.90;;;;;;5079621;28;20043;-72
2021/11/14 03:42:47;;;;;;;10.30;7.13;;;11.40;99.90;;;;;;5096974;28;20020;-74
2021/11/14 03:45:13;;;;;;;11.60;6.93;;;11.40;99.90;;;;;;5097539;28;20086;-73
2021/11/14 03:47:40;;;;;;;14.73;8.88;;;11.30;99.90;;;;;;5094635;28;20111;-71
2021/11/14 03:50:07;;;;;;;14.40;7.82;;;11.40;99.90;;;;;;5095902;28;20095;-83
2021/11/14 03:52:33;;;;;;;14.45;8.30;;;11.40;99.90;;;;;;5098823;28;20020;-76
2021/11/14 03:54:59;;;;;;;13.27;8.10;;;11.40;99.90;;;;;;5102864;28;20032;-79
2021/11/14 03:57:25;;;;;;;15.23;8.52;;;11.40;99.90;;;;;;5089409;28;20044;-77
2021/11/14 03:59:51;;;;;;;12.13;8.82;;;11.30;99.90;;;;;;5101155;28;20032;-81
2021/11/14 04:02:17;;;;;;;12.45;8.80;;;11.40;99.90;;;;;;5100022;28;20371;-85
2021/11/14 04:04:42;;;;;;;15.55;9.20;;;11.40;99.90;;;;;;5099353;28;20106;-70
2021/11/14 04:07:08;;;;;;;11.23;8.20;;;11.40;99.90;;;;;;5099131;28;20036;-72
2021/11/14 04:09:33;;;;;;;11.35;8.60;;;11.50;99.90;;;;;;5100773;28;20040;-76
2021/11/14 04:12:01;;;;;;;13.93;9.68;;;11.50;99.90;;;;;;5092409;28;20028;-70
2021/11/14 04:14:26;;;;;;;15.38;9.20;;;11.50;99.90;;;;;;5093658;28;20028;-70
2021/11/14 04:16:52;;;;;;;12.45;8.95;;;11.50;99.90;;;;;;5093824;28;20082;-70
2021/11/14 04:19:18;;;;;;;15.38;8.90;;;11.50;99.90;;;;;;5092430;28;20032;-73
2021/11/14 04:21:43;;;;;;;19.13;10.35;;;11.40;99.90;;;;;;5094283;28;20035;-69
2021/11/14 04:24:09;;;;;;;18.55;9.98;;;11.40;99.90;;;;;;5093761;28;20051;-71
2021/11/14 04:26:35;;;;;;;17.08;10.95;;;11.50;99.90;;;;;;5093977;28;20091;-70
2021/11/14 04:29:00;;;;;;;22.52;11.18;;;11.30;99.90;;;;;;5091884;28;20134;-70
2021/11/14 04:31:26;;;;;;;17.92;10.23;;;11.80;99.90;;;;;;5093400;28;20028;-70
2021/11/14 04:33:52;;;;;;;17.10;10.55;;;11.20;99.90;;;;;;5091938;28;20036;-71
2021/11/14 04:36:17;;;;;;;18.40;12.07;;;11.20;99.90;;;;;;5092442;28;20027;-70
2021/11/14 04:38:43;;;;;;;17.48;10.85;;;11.10;99.90;;;;;;5091913;28;20039;-71
2021/11/14 04:41:08;;;;;;;20.17;11.65;;;11.20;99.90;;;;;;5093234;28;20111;-71
2021/11/14 04:43:34;;;;;;;22.45;10.55;;;11.10;99.90;;;;;;5075276;28;20036;-71
2021/11/14 04:46:00;;;;;;;16.98;11.48;;;10.90;99.90;;;;;;5074479;28;20050;-70
2021/11/14 04:48:25;;;;;;;16.98;10.43;;;11.00;99.90;;;;;;5074888;28;20032;-71
2021/11/14 04:50:52;;;;;;;20.77;10.35;;;10.90;99.90;;;;;;5091962;28;20050;-71
2021/11/14 04:53:18;;;;;;;16.67;10.52;;;10.90;99.90;;;;;;5091615;28;20471;-71
2021/11/14 04:55:44;;;;;;;21.10;10.07;;;10.90;99.90;;;;;;5074948;28;20026;-71
2021/11/14 04:58:11;;;;;;;17.08;10.07;;;10.80;99.90;;;;;;5074747;28;20478;-71
2021/11/14 05:00:50;;;;;;;12.70;8.52;;;10.80;99.90;;;;;;5092883;28;20028;-71
2021/11/14 05:03:16;;;;;;;17.65;9.40;;;10.70;99.90;;;;;;5075027;28;20016;-72
2021/11/14 05:05:42;;;;;;;12.95;7.93;;;10.70;99.90;;;;;;5091776;28;20020;-82
2021/11/14 05:08:09;;;;;;;18.33;7.80;;;10.70;99.90;;;;;;5075749;28;20402;-78
2021/11/14 05:10:35;;;;;;;11.93;7.28;;;10.60;99.90;;;;;;5075546;28;20056;-78
2021/11/14 05:13:01;;;;;;;10.40;7.60;;;10.60;99.90;;;;;;5093817;28;20063;-78
2021/11/14 05:15:27;;;;;;;10.27;7.22;;;11.00;99.90;;;;;;5075461;28;20028;-75
2021/11/14 05:17:52;;;;;;;10.77;6.70;;;10.40;99.90;;;;;;5092349;28;20115;-77
2021/11/14 05:20:18;;;;;;;9.85;7.32;;;10.40;99.90;;;;;;5092743;28;20024;-73
2021/11/14 05:22:44;;;;;;;17.15;8.20;;;10.40;99.90;;;;;;5091778;28;20371;-79
2021/11/14 05:25:09;;;;;;;9.80;6.63;;;10.50;99.90;;;;;;5092279;28;20016;-78
2021/11/14 05:27:35;;;;;;;14.10;9.27;;;10.30;99.90;;;;;;5091821;28;20047;-79
2021/11/14 05:30:02;;;;;;;12.35;7.20;;;10.50;99.90;;;;;;5091799;28;20032;-79
2021/11/14 05:32:27;;;;;;;16.08;7.95;;;10.50;99.90;;;;;;5092976;28;20029;-75
2021/11/14 05:34:53;;;;;;;12.55;8.68;;;10.50;99.90;;;;;;5092082;28;20033;-78
2021/11/14 05:37:18;;;;;;;15.30;9.35;;;10.50;99.90;;;;;;5075019;28;20039;-73
2021/11/14 05:39:44;;;;;;;21.40;8.98;;;10.50;99.90;;;;;;5093221;28;20110;-74
2021/11/14 05:42:10;;;;;;;14.88;9.40;;;10.50;99.90;;;;;;5091280;28;20032;-71
2021/11/14 05:44:35;;;;;;;17.67;10.35;;;10.40;99.90;;;;;;5091909;28;20020;-71
2021/11/14 05:47:02;;;;;;;16.25;9.50;;;10.40;99.90;;;;;;5091271;28;20035;-72
2021/11/14 05:49:28;;;;;;;20.33;11.43;;;10.40;99.90;;;;;;5091353;28;20059;-72
2021/11/14 05:51:53;;;;;;;22.85;11.90;;;10.40;99.90;;;;;;5074405;28;20055;-71
2021/11/14 05:54:19;;;;;;;23.25;12.32;;;10.30;99.90;;;;;;5074279;28;20440;-71
2021/11/14 05:56:45;;;;;;;20.33;12.02;;;10.40;99.90;;;;;;5074474;28;20398;-71
2021/11/14 06:00:13;;;;;;;22.13;12.45;;;10.40;99.90;;;;;;5078034;28;20115;-72
2021/11/14 06:07:20;;;;;;;22.20;13.23;;;10.40;99.90;;;;;;5095939;28;20050;-71
2021/11/14 06:09:46;;;;;;;24.60;14.15;;;10.40;99.90;;;;;;5094612;28;20051;-70
2021/11/14 06:12:12;;;;;;;22.02;13.23;;;10.40;99.90;;;;;;5062324;28;20122;-85
2021/11/14 06:14:37;;;;;;;25.85;14.35;;;10.40;99.90;;;;;;5062298;28;20043;-85
2021/11/14 06:17:04;;;;;;;28.13;16.45;;;10.50;99.90;;;;;;5096099;28;20483;-86
2021/11/14 06:19:30;;;;;;;27.95;16.02;;;10.40;99.90;;;;;;5079244;28;20058;-84
2021/11/14 06:21:55;;;;;;;26.13;15.18;;;10.40;99.90;;;;;;5078901;28;20414;-84
2021/11/14 06:24:21;;;;;;;28.20;16.50;;;10.30;99.90;;;;;;5078623;28;20039;-83
2021/11/14 06:26:46;;;;;;;29.92;15.93;;;10.30;99.90;;;;;;5078335;28;20032;-84
2021/11/14 06:29:12;;;;;;;28.60;16.58;;;10.40;99.90;;;;;;5077747;28;20055;-82
2021/11/14 06:31:38;;;;;;;29.40;16.98;;;10.40;99.90;;;;;;5078027;28;20012;-79
2021/11/14 06:34:04;;;;;;;31.17;17.65;;;10.40;99.90;;;;;;5077886;28;20032;-85
2021/11/14 06:36:30;;;;;;;29.02;16.20;;;10.50;99.90;;;;;;5096087;28;20447;-84
2021/11/14 06:38:55;;;;;;;30.55;18.05;;;10.50;99.90;;;;;;5077833;28;20028;-83
2021/11/14 06:41:22;;;;;;;31.73;19.33;;;10.40;99.90;;;;;;5095544;28;20024;-82
2021/11/14 06:43:47;;;;;;;30.75;18.25;;;10.30;99.90;;;;;;5097571;28;20028;-87
2021/11/14 06:46:15;;;;;;;32.38;18.92;;;10.30;99.90;;;;;;5101211;28;20034;-85
2021/11/14 06:48:40;;;;;;;33.00;19.55;;;10.30;99.90;;;;;;5110172;28;20039;-85
2021/11/14 06:51:06;;;;;;;34.03;19.88;;;10.30;99.90;;;;;;5083323;28;20028;-82
2021/11/14 06:53:32;;;;;;;31.45;17.70;;;10.30;99.90;;;;;;5107162;28;20039;-85
2021/11/14 06:55:57;;;;;;;31.38;16.80;;;10.30;99.90;;;;;;5105186;28;20075;-81
2021/11/14 06:58:23;;;;;;;32.17;18.42;;;10.20;99.90;;;;;;5088439;28;20000;-86
2021/11/14 07:00:50;;;;;;;31.48;18.13;;;10.30;99.90;;;;;;5106276;28;20517;-83
2021/11/14 07:03:16;;;;;;;32.35;17.95;;;10.20;99.90;;;;;;5090815;28;20016;-85
2021/11/14 07:05:42;;;;;;;30.08;17.73;;;10.10;99.90;;;;;;5084221;28;20039;-84
2021/11/14 07:08:08;;;;;;;25.23;15.63;;;10.10;99.90;;;;;;5082910;28;20043;-82
2021/11/14 07:10:34;;;;;;;28.83;17.55;;;10.10;99.90;;;;;;5109561;28;20032;-80
2021/11/14 07:12:59;;;;;;;28.63;17.67;;;10.10;99.90;;;;;;5109475;28;20039;-85
2021/11/14 07:15:25;;;;;;;32.05;18.88;;;10.10;99.90;;;;;;5078659;28;20032;-73
2021/11/14 07:17:51;;;;;;;32.08;18.52;;;10.10;99.90;;;;;;5089289;28;20040;-82
2021/11/14 07:20:17;;;;;;;31.40;17.73;;;10.10;99.90;;;;;;5112732;28;20020;-77
2021/11/14 07:22:45;;;;;;;28.88;17.95;;;10.10;99.90;;;;;;5093150;28;20028;-74
2021/11/14 07:25:15;;;;;;;30.52;18.63;;;10.10;99.90;;;;;;5096011;28;20040;-76
2021/11/14 07:27:44;;;;;;;28.92;17.10;;;10.20;99.90;;;;;;5094186;28;20056;-80
2021/11/14 07:30:11;;;;;;;28.60;17.27;;;10.20;99.90;;;;;;5108491;28;20016;-82
2021/11/14 07:32:40;;;;;;;27.77;16.58;;;10.30;99.90;;;;;;5099488;28;20095;-80
2021/11/14 07:35:10;;;;;;;29.63;18.63;;;10.30;99.90;;;;;;5099338;28;20390;-81
2021/11/14 07:37:35;;;;;;;32.10;17.15;;;10.30;99.90;;;;;;5093159;28;20032;-71
2021/11/14 07:40:01;;;;;;;29.50;16.30;;;10.30;99.90;;;;;;5094155;28;20432;-70
2021/11/14 07:42:27;;;;;;;27.00;16.15;;;10.30;99.90;;;;;;5092769;28;20050;-69
2021/11/14 07:44:52;;;;;;;30.17;17.65;;;10.30;99.90;;;;;;5094113;28;20335;-71
2021/11/14 07:47:18;;;;;;;35.67;18.05;;;10.20;99.90;;;;;;5092740;28;20065;-70
2021/11/14 07:49:43;;;;;;;27.95;17.70;;;10.20;99.90;;;;;;5093936;28;20044;-72
2021/11/14 07:52:09;;;;;;;31.10;18.08;;;10.30;99.90;;;;;;5076130;28;20044;-74
2021/11/14 07:54:35;;;;;;;33.08;16.73;;;10.20;99.90;;;;;;5075968;28;20138;-70
2021/11/14 07:57:00;;;;;;;31.65;17.70;;;10.20;99.90;;;;;;5075988;28;20024;-70
2021/11/14 07:59:26;;;;;;;32.08;18.83;;;10.20;99.90;;;;;;5059122;28;20028;-71
2021/11/14 08:01:52;;;;;;;31.08;17.58;;;10.30;99.90;;;;;;5092580;28;20052;-69
2021/11/14 08:04:18;;;;;;;29.85;17.83;;;10.30;99.90;;;;;;5094290;28;20029;-70
2021/11/14 08:06:44;;;;;;;28.48;16.98;;;10.30;99.90;;;;;;5092824;28;20121;-70
2021/11/14 08:09:10;;;;;;;33.63;17.17;;;10.40;99.90;;;;;;5081293;28;20034;-79
2021/11/14 08:11:36;;;;;;;27.08;17.02;;;10.40;99.90;;;;;;5086938;28;20020;-76
2021/11/14 08:14:03;;;;;;;26.92;16.63;;;10.50;99.90;;;;;;5096641;28;20035;-78
2021/11/14 08:16:28;;;;;;;28.17;16.25;;;10.40;99.90;;;;;;5094457;28;20104;-75
2021/11/14 08:18:54;;;;;;;31.65;16.30;;;10.40;99.90;;;;;;5088488;28;20036;-81
2021/11/14 08:21:20;;;;;;;30.45;17.23;;;10.40;99.90;;;;;;5068669;28;20156;-71
2021/11/14 08:23:45;;;;;;;28.45;16.38;;;10.40;99.90;;;;;;5101461;28;20051;-80
2021/11/14 08:26:11;;;;;;;28.48;16.70;;;10.50;99.90;;;;;;5097295;28;20027;-80
2021/11/14 08:28:37;;;;;;;29.05;17.40;;;10.50;99.90;;;;;;5079954;28;20052;-81
2021/11/14 08:31:02;;;;;;;25.40;15.43;;;10.40;99.90;;;;;;5099607;28;20024;-80
2021/11/14 08:33:30;;;;;;;27.73;16.08;;;10.60;99.90;;;;;;5099421;28;20066;-76
2021/11/14 08:35:56;;;;;;;25.27;15.63;;;10.50;99.90;;;;;;5098858;28;20017;-78
2021/11/14 08:38:21;;;;;;;27.45;15.63;;;10.60;99.90;;;;;;5095309;28;20031;-80
2021/11/14 08:40:47;;;;;;;29.90;16.40;;;10.50;99.90;;;;;;5094510;28;20470;-71
2021/11/14 08:43:13;;;;;;;30.60;16.92;;;10.60;99.90;;;;;;5093341;28;20038;-74
2021/11/14 08:45:40;;;;;;;26.00;15.45;;;10.60;99.90;;;;;;5092727;28;20044;-78
2021/11/14 08:48:05;;;;;;;28.00;16.63;;;10.60;99.90;;;;;;5092189;28;20028;-79
2021/11/14 08:50:32;;;;;;;26.15;16.00;;;10.60;99.90;;;;;;5075491;28;20049;-76
2021/11/14 08:52:58;;;;;;;28.30;17.42;;;10.60;99.90;;;;;;5077723;28;20020;-81
2021/11/14 08:55:25;;;;;;;26.50;16.23;;;10.60;99.90;;;;;;5100733;28;20031;-78
2021/11/14 08:57:53;;;;;;;32.58;17.77;;;10.60;99.90;;;;;;5100976;28;20083;-72
2021/11/14 09:00:22;;;;;;;26.58;15.85;;;10.60;99.90;;;;;;5100232;28;20493;-77
2021/11/14 09:02:52;;;;;;;30.05;17.20;;;10.60;99.90;;;;;;5092868;28;20024;-78
2021/11/14 09:05:20;;;;;;;29.83;17.15;;;10.60;99.90;;;;;;5075794;28;20035;-76
2021/11/14 09:07:45;;;;;;;28.45;17.13;;;10.60;99.90;;;;;;5095500;28;20042;-71
2021/11/14 09:10:12;;;;;;;33.40;17.23;;;10.70;99.90;;;;;;5076155;28;20028;-68
2021/11/14 09:12:38;;;;;;;31.00;17.45;;;10.70;99.90;;;;;;5091741;28;20020;-70
2021/11/14 09:15:04;;;;;;;34.80;19.23;;;10.70;99.90;;;;;;5091816;28;20414;-71
2021/11/14 09:17:30;;;;;;;31.23;16.58;;;10.70;99.90;;;;;;5091669;28;20419;-71
2021/11/14 09:19:55;;;;;;;33.00;18.08;;;10.80;99.90;;;;;;5091683;28;20134;-68
2021/11/14 09:22:22;;;;;;;31.85;17.80;;;10.80;99.90;;;;;;5093332;28;20056;-67
2021/11/14 09:24:48;;;;;;;35.80;19.92;;;10.80;99.90;;;;;;5091605;28;20024;-71
2021/11/14 09:27:13;;;;;;;28.73;17.50;;;10.80;99.90;;;;;;5092883;28;20024;-69
2021/11/14 09:29:39;;;;;;;32.08;19.08;;;10.80;99.90;;;;;;5074330;28;20044;-69
2021/11/14 09:32:07;;;;;;;31.48;18.38;;;10.80;99.90;;;;;;5093412;28;20129;-71
2021/11/14 09:34:33;;;;;;;31.60;19.05;;;10.80;99.90;;;;;;5078645;28;20115;-76
2021/11/14 09:36:59;;;;;;;31.95;17.25;;;10.90;99.90;;;;;;5095803;28;20581;-73
2021/11/14 09:39:25;;;;;;;34.72;18.70;;;10.90;99.90;;;;;;5062271;28;20379;-75
2021/11/14 09:41:51;;;;;;;29.23;17.75;;;10.90;99.90;;;;;;5111042;28;20039;-71
2021/11/14 09:44:19;;;;;;;25.55;16.75;;;11.00;99.90;;;;;;5102493;28;20069;-77
2021/11/14 09:46:47;;;;;;;26.95;17.02;;;11.10;99.90;;;;;;5082372;28;20394;-68
2021/11/14 09:49:14;;;;;;;32.33;17.65;;;11.00;99.90;;;;;;5098802;28;20035;-66
2021/11/14 09:51:39;;;;;;;29.00;17.33;;;11.00;99.90;;;;;;5079216;28;20020;-74
2021/11/14 09:54:07;;;;;;;30.42;17.77;;;11.10;99.90;;;;;;5062404;28;20135;-70
2021/11/14 09:56:32;;;;;;;26.15;16.60;;;11.10;99.90;;;;;;5095147;28;20051;-76
2021/11/14 09:58:58;;;;;;;27.60;17.75;;;11.20;99.90;;;;;;5095574;28;20505;-70
2021/11/14 10:01:24;;;;;;;22.63;14.65;;;11.20;99.90;;;;;;5078953;28;20032;-73
2021/11/14 10:03:49;;;;;;;27.25;17.08;;;11.30;99.90;;;;;;5094911;28;20035;-72
2021/11/14 10:06:18;;;;;;;25.17;16.40;;;11.30;99.90;;;;;;5096946;28;20024;-73
2021/11/14 10:08:45;;;;;;;30.60;16.75;;;11.20;99.90;;;;;;5079714;28;20517;-71
2021/11/14 10:11:11;;;;;;;29.77;18.33;;;11.20;99.90;;;;;;5096228;28;20055;-72
2021/11/14 10:13:37;;;;;;;25.08;14.88;;;11.30;99.90;;;;;;5094600;28;20056;-70
2021/11/14 10:16:18;;;;;;;27.55;17.48;;;11.30;99.90;;;;;;5094933;28;20074;-77
2021/11/14 10:18:51;;;;;;;27.92;17.83;;;11.40;99.90;;;;;;5095091;28;20069;-77
2021/11/14 10:21:17;;;;;;;27.63;16.50;;;11.50;99.90;;;;;;5096882;28;20024;-77
2021/11/14 10:23:43;;;;;;;29.58;17.10;;;11.50;99.90;;;;;;5078428;28;20028;-75
2021/11/14 10:26:11;;;;;;;29.00;18.23;;;11.40;99.90;;;;;;5078133;28;20016;-78
2021/11/14 10:28:43;;;;;;;25.75;15.70;;;11.40;99.90;;;;;;5077719;28;20064;-78
2021/11/14 10:31:10;;;;;;;28.75;16.42;;;11.50;99.90;;;;;;5078209;28;20016;-74
2021/11/14 10:33:36;;;;;;;23.00;13.77;;;11.40;99.90;;;;;;5077588;28;20032;-75
2021/11/14 10:36:03;;;;;;;23.60;13.35;;;11.30;99.90;;;;;;5094529;28;20093;-75
2021/11/14 10:38:33;;;;;;;22.00;13.30;;;11.30;99.90;;;;;;5095514;28;20020;-75
2021/11/14 10:41:01;;;;;;;25.08;13.65;;;11.30;99.90;;;;;;5094939;28;20017;-75
2021/11/14 10:43:28;;;;;;;25.20;13.88;;;11.20;99.90;;;;;;5094769;28;20024;-70
2021/11/14 10:45:55;;;;;;;24.65;12.65;;;11.20;99.90;;;;;;5095103;28;20020;-75
2021/11/14 10:48:24;;;;;;;21.40;13.45;;;11.20;99.90;;;;;;5094087;28;20047;-72
2021/11/14 10:50:54;;;;;;;27.10;14.95;;;11.30;99.90;;;;;;5094038;28;20031;-72
2021/11/14 10:53:24;;;;;;;26.55;15.15;;;11.30;99.90;;;;;;5077017;28;20131;-75
2021/11/14 10:55:55;;;;;;;23.35;13.18;;;11.30;99.90;;;;;;5077015;28;20024;-71
2021/11/14 10:58:23;;;;;;;29.20;14.38;;;11.30;99.90;;;;;;5095270;28;20016;-74
2021/11/14 11:00:52;;;;;;;27.40;15.30;;;11.20;99.90;;;;;;5076923;28;20394;-75
2021/11/14 11:03:18;;;;;;;25.63;14.57;;;11.20;99.90;;;;;;5076788;28;20016;-74
2021/11/14 11:05:44;;;;;;;22.83;14.32;;;11.20;99.90;;;;;;5093839;28;20053;-73
2021/11/14 11:08:19;;;;;;;26.30;14.40;;;11.20;99.90;;;;;;5076844;28;20040;-73
2021/11/14 11:10:51;;;;;;;24.88;14.32;;;11.30;99.90;;;;;;5076780;28;20043;-73
2021/11/14 11:13:42;;;;;;;27.17;14.23;;;11.20;99.90;;;;;;5093834;28;20065;-71
2021/11/14 11:16:10;;;;;;;24.13;14.20;;;11.30;99.90;;;;;;5093723;28;20363;-69
2021/11/14 11:18:38;;;;;;;22.42;14.30;;;11.30;99.90;;;;;;5093419;28;21071;-75
2021/11/14 11:21:06;;;;;;;28.40;13.85;;;11.30;99.90;;;;;;5094535;28;20047;-70
2021/11/14 11:23:33;;;;;;;23.83;12.98;;;11.30;99.90;;;;;;5093766;28;20024;-73
2021/11/14 11:26:01;;;;;;;24.35;12.93;;;11.50;99.90;;;;;;5093458;28;20023;-72
2021/11/14 11:28:33;;;;;;;24.35;12.95;;;11.50;99.90;;;;;;5093122;28;20048;-69
2021/11/14 11:31:20;;;;;;;21.25;12.52;;;11.60;99.90;;;;;;5094217;28;20025;-70
2021/11/14 11:33:49;;;;;;;24.70;14.23;;;11.60;99.90;;;;;;5093086;28;20039;-71
2021/11/14 11:36:15;;;;;;;21.00;12.77;;;11.50;99.90;;;;;;5093152;28;20031;-66
2021/11/14 11:38:45;;;;;;;23.52;14.25;;;11.50;99.90;;;;;;5093016;28;20379;-69
2021/11/14 11:41:13;;;;;;;22.77;13.82;;;11.50;99.90;;;;;;5092893;28;20029;-69
2021/11/14 11:43:42;;;;;;;20.33;12.75;;;11.50;99.90;;;;;;5095889;28;20065;-76
2021/11/14 11:46:14;;;;;;;22.52;13.95;;;11.50;99.90;;;;;;5077024;28;20469;-79
2021/11/14 11:48:46;;;;;;;23.98;12.88;;;11.60;99.90;;;;;;5097726;28;20028;-74
2021/11/14 11:51:13;;;;;;;22.40;14.00;;;11.60;99.90;;;;;;5097515;28;19996;-80
2021/11/14 11:53:40;;;;;;;23.50;13.35;;;11.60;99.90;;;;;;5093546;28;20028;-74
2021/11/14 11:56:12;;;;;;;23.23;12.90;;;11.60;99.90;;;;;;5077269;28;20023;-80
2021/11/14 11:58:45;;;;;;;23.45;13.27;;;11.70;99.90;;;;;;5077908;28;20490;-78
2021/11/14 12:01:32;;;;;;;24.42;13.75;;;11.60;99.90;;;;;;5095364;28;20046;-82
2021/11/14 12:04:22;;;;;;;28.42;15.63;;;11.50;99.90;;;;;;5083363;28;20030;-79
2021/11/14 12:06:54;;;;;;;29.33;15.90;;;11.50;99.90;;;;;;5037599;28;20032;-73
2021/11/14 12:09:23;;;;;;;26.58;15.43;;;11.50;99.90;;;;;;5106300;28;20032;-71
2021/11/14 12:11:48;;;;;;;23.17;13.73;;;11.60;99.90;;;;;;5112083;28;20075;-75
2021/11/14 12:14:27;;;;;;;28.35;14.23;;;11.60;99.90;;;;;;5109296;28;20039;-79
2021/11/14 12:17:08;;;;;;;26.75;14.18;;;11.60;99.90;;;;;;5094581;28;20020;-74
2021/11/14 12:19:39;;;;;;;27.10;14.10;;;11.60;99.90;;;;;;5105669;28;20035;-75
2021/11/14 12:22:07;;;;;;;26.95;15.38;;;11.60;99.90;;;;;;5106680;28;20535;-76
2021/11/14 12:24:53;;;;;;;24.85;13.63;;;11.50;99.90;;;;;;5100223;28;20027;-74
2021/11/14 12:27:23;;;;;;;24.65;13.30;;;11.50;99.90;;;;;;5094115;28;20020;-75
2021/11/14 12:30:09;;;;;;;23.90;14.52;;;11.60;99.90;;;;;;5092406;28;20036;-75
2021/11/14 12:32:41;;;;;;;23.63;14.68;;;11.60;99.90;;;;;;5076170;28;20035;-76
2021/11/14 12:35:23;;;;;;;20.73;12.88;;;11.70;99.90;;;;;;5093985;28;20020;-75
2021/11/14 12:37:51;;;;;;;24.15;14.15;;;11.80;99.90;;;;;;5094037;28;20106;-74
2021/11/14 12:40:22;;;;;;;22.65;13.65;;;11.80;99.90;;;;;;5075321;28;20199;-73